Погода Капривина 2 недели

Хардап, Намибия

15 - 28 июля
  • 15июля
    Сегодня
    +12°
    +29°
    Ясно и безоблачно
    ВремяПогодаТемператураВлажностьДавлениеВетер, м/сВероятность осадков
    02:00Ясно и безоблачно+8°C34 %694 мм2.4 м/с0 %
    05:00Ясно и безоблачно+8°C38 %694 мм1.7 м/с0 %
    08:00Ясно и безоблачно+11°C44 %696 мм0.9 м/с0 %
    11:00Ясно и безоблачно+25°C22 %699 мм1.7 м/с0 %
    14:00Ясно и безоблачно+29°C13 %697 мм0.6 м/с0 %
    17:00Ясно и безоблачно+28°C12 %696 мм1.5 м/с0 %
    20:00Ясно и безоблачно+20°C21 %695 мм1.7 м/с0 %
    23:00Ясно и безоблачно+16°C23 %695 мм2.6 м/с0 %
  • 16июля
    Вторник
    +11°
    +30°
    Ясно и безоблачно
    ВремяПогодаТемператураВлажностьДавлениеВетер, м/сВероятность осадков
    02:00Ясно и безоблачно+14°C23 %695 мм2.3 м/с0 %
    05:00Ясно и безоблачно+14°C23 %694 мм0.7 м/с0 %
    08:00Ясно и безоблачно+13°C29 %696 мм1.2 м/с0 %
    11:00Ясно и безоблачно+25°C10 %698 мм1.8 м/с0 %
    14:00Ясно и безоблачно+29°C8 %696 мм0.5 м/с0 %
    17:00Ясно и безоблачно+28°C8 %695 мм1.9 м/с0 %
    20:00Ясно и безоблачно+21°C15 %695 мм2.1 м/с0 %
    23:00Ясно и безоблачно+18°C20 %695 мм0.6 м/с0 %
  • 17июля
    Среда
    +12°
    +31°
    Ясно и безоблачно
    ВремяПогодаТемператураВлажностьДавлениеВетер, м/сВероятность осадков
    02:00Ясно и безоблачно+14°C30 %694 мм2.5 м/с0 %
    05:00Ясно и безоблачно+13°C35 %694 мм2.5 м/с0 %
    08:00Ясно и безоблачно+14°C40 %696 мм2.5 м/с0 %
    11:00Ясно и безоблачно+26°C20 %698 мм1.8 м/с0 %
    14:00Ясно и безоблачно+30°C10 %696 мм0.6 м/с0 %
    17:00Ясно и безоблачно+29°C10 %695 мм2.6 м/с0 %
    20:00Ясно и безоблачно+20°C20 %694 мм2.6 м/с0 %
    23:00Ясно и безоблачно+19°C25 %696 мм3.7 м/с0 %
  • 18июля
    Четверг
    +12°
    +31°
    Ясно и безоблачно
    ВремяПогодаТемператураВлажностьДавлениеВетер, м/сВероятность осадков
    02:00Ясно и безоблачно+17°C35 %694 мм2.7 м/с0 %
    05:00Ясно и безоблачно+14°C43 %694 мм1.9 м/с0 %
    08:00Ясно и безоблачно+16°C43 %696 мм2.3 м/с0 %
    11:00Ясно и безоблачно+27°C19 %698 мм2.0 м/с0 %
    14:00Ясно и безоблачно+31°C13 %696 мм0.6 м/с0 %
    17:00Ясно и безоблачно+29°C14 %695 мм2.5 м/с0 %
    20:00Ясно и безоблачно+21°C27 %695 мм1.9 м/с0 %
    23:00Ясно и безоблачно+17°C40 %694 мм1.6 м/с0 %
  • 19июля
    Пятница
    +12°
    +31°
    Ясно и безоблачно
    ВремяПогодаТемператураВлажностьДавлениеВетер, м/сВероятность осадков
    02:00Ясно и безоблачно+16°C38 %694 мм2.7 м/с0 %
    05:00Ясно и безоблачно+14°C48 %693 мм2.2 м/с0 %
    08:00Ясно и безоблачно+15°C45 %695 мм2.3 м/с0 %
    11:00Ясно и безоблачно+28°C16 %698 мм1.9 м/с0 %
    14:00Ясно и безоблачно+31°C11 %695 мм0.6 м/с0 %
    17:00Ясно и безоблачно+30°C10 %695 мм1.6 м/с0 %
    20:00Ясно и безоблачно+22°C16 %694 мм2.3 м/с0 %
    23:00Ясно и безоблачно+21°C16 %694 мм1.7 м/с0 %
Мы используем cookies
Соглашаюсь